createdAt,value
2019-06-27T00:01:56.966Z,9.63
2019-06-27T00:04:43.323Z,9.63
2019-06-27T00:07:29.613Z,8.73
2019-06-27T00:10:16.050Z,8.87
2019-06-27T00:13:03.139Z,9.17
2019-06-27T00:15:49.243Z,9.00
2019-06-27T00:18:35.633Z,8.80
2019-06-27T00:21:22.133Z,8.97
2019-06-27T00:24:07.978Z,8.83
2019-06-27T00:26:57.392Z,8.73
2019-06-27T00:29:41.733Z,8.77
2019-06-27T00:32:27.905Z,9.13
2019-06-27T00:35:13.761Z,8.53
2019-06-27T00:38:00.139Z,8.70
2019-06-27T00:40:46.458Z,8.00
2019-06-27T00:43:33.557Z,11.03
2019-06-27T00:46:19.501Z,8.23
2019-06-27T00:49:05.721Z,8.63
2019-06-27T00:51:52.166Z,7.77
2019-06-27T00:54:38.329Z,8.03
2019-06-27T00:57:24.654Z,8.00
2019-06-27T01:00:11.195Z,7.77
2019-06-27T01:02:57.165Z,7.67
2019-06-27T01:05:43.465Z,8.30
2019-06-27T01:08:29.793Z,7.83
2019-06-27T01:11:26.410Z,7.60
2019-06-27T01:14:12.370Z,7.47
2019-06-27T01:17:00.384Z,7.77
2019-06-27T01:19:46.665Z,7.90
2019-06-27T01:22:42.261Z,7.50
2019-06-27T01:25:28.574Z,7.40
2019-06-27T01:28:19.193Z,7.60
2019-06-27T01:31:05.550Z,7.43
2019-06-27T01:33:51.621Z,7.23
2019-06-27T01:36:38.041Z,7.10
2019-06-27T01:39:24.197Z,7.37
2019-06-27T01:42:19.682Z,7.23
2019-06-27T01:45:34.876Z,6.97
2019-06-27T01:48:22.210Z,7.07
2019-06-27T01:51:18.019Z,6.63
2019-06-27T01:54:04.558Z,5.70
2019-06-27T01:56:50.766Z,6.20
2019-06-27T01:59:41.901Z,6.20
2019-06-27T02:02:46.281Z,5.43
2019-06-27T02:05:41.798Z,5.57
2019-06-27T02:08:38.442Z,5.60
2019-06-27T02:11:25.692Z,5.80
2019-06-27T02:14:12.074Z,5.80
2019-06-27T02:16:58.496Z,5.60
2019-06-27T02:19:44.770Z,5.33
2019-06-27T02:22:31.051Z,5.00
2019-06-27T02:25:17.724Z,5.47
2019-06-27T02:28:04.576Z,5.47
2019-06-27T02:31:00.278Z,5.57
2019-06-27T02:33:52.740Z,5.30
2019-06-27T02:36:43.433Z,5.60
2019-06-27T02:39:30.383Z,5.17
2019-06-27T02:42:16.886Z,5.27
2019-06-27T02:45:07.718Z,5.10
2019-06-27T02:47:54.339Z,5.20
2019-06-27T02:50:40.750Z,5.20
2019-06-27T02:53:27.139Z,4.37
2019-06-27T02:56:13.475Z,4.30
2019-06-27T02:59:08.654Z,4.30
2019-06-27T03:02:04.130Z,4.27
2019-06-27T03:04:56.769Z,4.23
2019-06-27T03:07:52.044Z,4.00
2019-06-27T03:31:42.697Z,3.33
2019-06-27T03:34:28.997Z,3.20
2019-06-27T03:37:15.156Z,3.93
2019-06-27T03:40:02.450Z,3.80
2019-06-27T03:42:48.756Z,3.37
2019-06-27T03:45:39.045Z,3.57
2019-06-27T03:48:27.013Z,3.20
2019-06-27T03:51:13.305Z,2.33
2019-06-27T03:53:59.530Z,2.60
2019-06-27T03:56:45.873Z,2.50
2019-06-27T03:59:32.159Z,2.50
2019-06-27T04:02:18.590Z,2.50
2019-06-27T04:05:05.136Z,2.33
2019-06-27T04:07:51.010Z,2.50
2019-06-27T04:10:37.195Z,2.43
2019-06-27T04:13:23.819Z,2.50
2019-06-27T04:16:12.221Z,2.40
2019-06-27T04:18:58.318Z,2.30
2019-06-27T04:21:55.548Z,2.60
2019-06-27T04:24:41.569Z,2.70
2019-06-27T04:27:28.201Z,2.67
2019-06-27T04:30:14.603Z,2.90
2019-06-27T04:33:00.672Z,2.60
2019-06-27T04:35:47.110Z,2.27
2019-06-27T04:38:33.301Z,2.50
2019-06-27T04:44:48.521Z,2.77
2019-06-27T04:47:35.009Z,2.77
2019-06-27T04:50:21.220Z,2.67
2019-06-27T04:53:07.094Z,2.73
2019-06-27T04:55:52.930Z,2.40
2019-06-27T04:58:39.233Z,2.67
2019-06-27T05:01:25.575Z,2.60
2019-06-27T05:04:12.008Z,2.70
2019-06-27T05:06:57.879Z,2.20
2019-06-27T05:09:44.194Z,2.67
2019-06-27T05:12:30.638Z,2.57
2019-06-27T05:15:16.898Z,2.43
2019-06-27T05:18:03.162Z,2.30
2019-06-27T05:20:49.737Z,2.30
2019-06-27T05:23:35.978Z,2.20
2019-06-27T05:26:22.229Z,2.50
2019-06-27T05:29:08.552Z,2.70
2019-06-27T05:31:54.680Z,2.83
2019-06-27T05:34:45.497Z,2.60
2019-06-27T05:37:31.348Z,2.60
2019-06-27T05:40:18.647Z,2.50
2019-06-27T05:43:04.802Z,2.40
2019-06-27T05:45:51.237Z,2.37
2019-06-27T05:48:39.674Z,2.53
2019-06-27T05:51:25.416Z,2.37
2019-06-27T05:54:11.318Z,2.17
2019-06-27T05:56:57.513Z,2.07
2019-06-27T05:59:44.578Z,1.80
2019-06-27T06:02:30.807Z,2.13
2019-06-27T06:05:17.188Z,2.50
2019-06-27T06:08:03.429Z,1.43
2019-06-27T06:10:49.647Z,1.70
2019-06-27T06:13:36.366Z,2.00
2019-06-27T06:16:22.769Z,1.70
2019-06-27T06:19:09.371Z,1.53
2019-06-27T06:21:55.704Z,2.00
2019-06-27T06:24:41.757Z,1.40
2019-06-27T06:27:28.182Z,1.80
2019-06-27T06:30:14.706Z,1.20
2019-06-27T06:33:00.820Z,1.60
2019-06-27T06:35:47.071Z,1.47
2019-06-27T06:38:33.324Z,1.47
2019-06-27T06:41:20.036Z,1.80
2019-06-27T06:44:06.051Z,1.90
2019-06-27T06:46:52.194Z,1.90
2019-06-27T06:49:38.718Z,2.17
2019-06-27T06:52:24.991Z,1.83
2019-06-27T06:55:12.001Z,2.10
2019-06-27T06:57:58.489Z,1.90
2019-06-27T07:01:00.172Z,1.90
2019-06-27T07:03:32.421Z,1.70
2019-06-27T07:06:18.916Z,1.90
2019-06-27T07:09:05.241Z,1.90
2019-06-27T07:11:51.796Z,2.20
2019-06-27T07:14:37.963Z,2.07
2019-06-27T07:17:24.224Z,2.20
2019-06-27T07:20:11.035Z,1.83
2019-06-27T07:22:57.368Z,1.63
2019-06-27T07:25:43.560Z,1.57
2019-06-27T07:28:29.799Z,1.97
2019-06-27T07:31:18.140Z,2.07
2019-06-27T07:34:04.069Z,2.07
2019-06-27T07:36:50.303Z,1.70
2019-06-27T07:39:36.698Z,1.80
2019-06-27T07:42:22.996Z,1.87
2019-06-27T07:45:09.499Z,1.60
2019-06-27T07:47:55.670Z,1.60
2019-06-27T07:50:41.990Z,1.70
2019-06-27T07:53:27.887Z,1.70
2019-06-27T07:56:14.262Z,1.73
2019-06-27T07:59:00.270Z,1.70
2019-06-27T08:01:46.614Z,1.83
2019-06-27T08:04:33.880Z,1.90
2019-06-27T08:07:21.328Z,1.60
2019-06-27T08:10:07.879Z,1.57
2019-06-27T08:12:54.011Z,1.50
2019-06-27T08:15:40.403Z,1.50
2019-06-27T08:18:28.376Z,1.87
2019-06-27T08:21:14.671Z,1.67
2019-06-27T08:24:01.075Z,2.20
2019-06-27T08:26:47.064Z,1.43
2019-06-27T08:29:33.278Z,1.60
2019-06-27T08:32:19.650Z,1.70
2019-06-27T08:35:06.317Z,2.00
2019-06-27T08:37:52.540Z,1.57
2019-06-27T08:40:38.346Z,1.37
2019-06-27T08:43:24.770Z,1.60
2019-06-27T08:46:11.167Z,1.70
2019-06-27T08:48:57.412Z,1.60
2019-06-27T08:51:43.697Z,1.63
2019-06-27T08:54:29.971Z,1.60
2019-06-27T08:57:16.009Z,1.47
2019-06-27T09:00:02.025Z,1.60
2019-06-27T09:02:48.264Z,2.00
2019-06-27T09:05:34.849Z,1.77
2019-06-27T09:08:21.186Z,1.50
2019-06-27T09:11:07.152Z,1.50
2019-06-27T09:13:53.599Z,1.70
2019-06-27T09:16:39.839Z,1.37
2019-06-27T09:19:26.173Z,1.40
2019-06-27T09:22:12.655Z,1.70
2019-06-27T09:24:59.435Z,1.50
2019-06-27T09:27:45.644Z,1.60
2019-06-27T09:30:31.928Z,1.30
2019-06-27T09:33:17.660Z,1.40
2019-06-27T09:36:04.196Z,1.33
2019-06-27T09:38:50.272Z,1.30
2019-06-27T09:41:36.604Z,1.30
2019-06-27T09:44:23.060Z,1.10
2019-06-27T09:47:09.346Z,1.20
2019-06-27T09:49:55.646Z,1.43
2019-06-27T09:52:42.071Z,1.43
2019-06-27T09:55:27.813Z,1.37
2019-06-27T09:58:13.807Z,1.40
2019-06-27T10:01:00.377Z,1.30
2019-06-27T10:03:46.457Z,1.20
2019-06-27T10:06:32.442Z,1.20
2019-06-27T10:09:18.558Z,1.10
2019-06-27T10:12:04.980Z,0.90
2019-06-27T10:14:51.394Z,1.10
2019-06-27T10:17:37.680Z,1.20
2019-06-27T10:20:23.780Z,1.03
2019-06-27T10:23:10.076Z,1.20
2019-06-27T10:25:56.446Z,1.10
2019-06-27T10:28:42.722Z,1.00
2019-06-27T10:31:29.327Z,1.07
2019-06-27T10:34:15.616Z,1.10
2019-06-27T10:37:02.071Z,1.40
2019-06-27T10:39:48.343Z,0.80
2019-06-27T10:42:34.610Z,0.90
2019-06-27T10:45:20.596Z,0.93
2019-06-27T10:48:06.841Z,0.90
2019-06-27T10:50:54.748Z,1.13
2019-06-27T10:53:41.021Z,1.20
2019-06-27T10:56:29.652Z,1.10
2019-06-27T10:59:15.780Z,1.20
2019-06-27T11:02:02.090Z,1.10
2019-06-27T11:04:48.313Z,1.20
2019-06-27T11:07:34.645Z,1.30
2019-06-27T11:10:21.360Z,1.40
2019-06-27T11:13:07.340Z,1.20
2019-06-27T11:15:53.648Z,1.30
2019-06-27T11:18:40.101Z,1.10
2019-06-27T11:21:26.280Z,1.10
2019-06-27T11:24:12.540Z,0.97
2019-06-27T11:26:58.971Z,1.10
2019-06-27T11:29:45.264Z,1.03
2019-06-27T11:32:31.540Z,1.10
2019-06-27T11:35:18.040Z,1.17
2019-06-27T11:38:03.796Z,1.20
2019-06-27T11:40:50.156Z,1.10
2019-06-27T11:43:36.043Z,1.10
2019-06-27T11:46:22.461Z,1.20
2019-06-27T11:49:08.697Z,1.07
2019-06-27T11:51:54.891Z,1.00
2019-06-27T11:54:41.142Z,1.13
2019-06-27T11:57:27.476Z,1.00
2019-06-27T12:00:13.903Z,1.07
2019-06-27T12:02:59.952Z,1.20
2019-06-27T12:05:46.377Z,1.07
2019-06-27T12:08:32.594Z,1.10
2019-06-27T12:11:19.015Z,1.03
2019-06-27T12:14:05.340Z,1.00
2019-06-27T12:16:51.663Z,1.00
2019-06-27T12:19:37.518Z,0.90
2019-06-27T12:22:23.832Z,1.10
2019-06-27T12:25:09.972Z,1.20
2019-06-27T12:27:56.077Z,0.97
2019-06-27T12:30:42.732Z,1.00
2019-06-27T12:33:28.929Z,1.00
2019-06-27T12:36:15.358Z,1.10
2019-06-27T12:39:01.818Z,0.90
2019-06-27T12:41:48.297Z,1.07
2019-06-27T12:44:34.717Z,1.00
2019-06-27T12:47:21.032Z,1.00
2019-06-27T12:50:07.441Z,0.93
2019-06-27T12:52:53.848Z,1.07
2019-06-27T12:55:40.108Z,1.00
2019-06-27T12:58:26.534Z,1.00
2019-06-27T13:01:13.059Z,1.07
2019-06-27T13:03:58.859Z,1.10
2019-06-27T13:06:45.401Z,1.10
2019-06-27T13:09:31.585Z,1.20
2019-06-27T13:12:18.002Z,1.00
2019-06-27T13:15:04.925Z,1.10
2019-06-27T13:17:51.228Z,1.20
2019-06-27T13:20:37.081Z,1.20
2019-06-27T13:23:23.488Z,1.30
2019-06-27T13:26:09.308Z,1.13
2019-06-27T13:28:55.149Z,1.10
2019-06-27T13:31:41.607Z,1.10
2019-06-27T13:34:39.858Z,1.20
2019-06-27T13:37:15.677Z,0.90
2019-06-27T13:40:04.601Z,1.33
2019-06-27T13:42:49.880Z,1.20
2019-06-27T13:45:35.645Z,0.90
2019-06-27T13:48:22.186Z,1.10
2019-06-27T13:51:07.905Z,1.10
2019-06-27T13:53:53.674Z,1.20
2019-06-27T13:56:39.934Z,0.97
2019-06-27T13:59:26.348Z,1.03
2019-06-27T14:02:12.226Z,1.00
2019-06-27T14:04:58.557Z,1.10
2019-06-27T14:07:44.981Z,1.10
2019-06-27T14:10:31.426Z,1.10
2019-06-27T14:13:17.707Z,1.10
2019-06-27T14:16:05.949Z,1.10
2019-06-27T14:18:52.192Z,0.90
2019-06-27T14:21:38.459Z,0.90
2019-06-27T14:24:24.724Z,0.83
2019-06-27T14:27:11.123Z,1.10
2019-06-27T14:29:57.352Z,1.00
2019-06-27T14:32:43.100Z,0.80
2019-06-27T14:35:29.453Z,0.90
2019-06-27T14:38:15.661Z,0.90
2019-06-27T14:41:01.485Z,1.10
2019-06-27T14:43:47.717Z,0.90
2019-06-27T14:46:37.188Z,1.00
2019-06-27T14:49:22.360Z,0.90
2019-06-27T14:52:08.737Z,0.90
2019-06-27T14:54:55.136Z,1.10
2019-06-27T14:57:41.492Z,0.90
2019-06-27T15:00:27.799Z,1.00
2019-06-27T15:03:13.956Z,1.40
2019-06-27T15:06:00.512Z,0.90
2019-06-27T15:08:46.582Z,1.13
2019-06-27T15:11:32.418Z,0.90
2019-06-27T15:14:18.977Z,0.80
2019-06-27T15:17:05.265Z,1.10
2019-06-27T15:19:51.676Z,0.83
2019-06-27T15:22:37.584Z,1.07
2019-06-27T15:25:23.868Z,0.80
2019-06-27T15:28:09.826Z,0.80
2019-06-27T15:30:56.100Z,0.80
2019-06-27T15:33:42.430Z,0.80
2019-06-27T15:36:28.308Z,0.90
2019-06-27T15:39:14.580Z,1.00
2019-06-27T15:42:00.957Z,0.80
2019-06-27T15:44:47.472Z,0.90
2019-06-27T15:47:33.586Z,0.97
2019-06-27T15:50:19.347Z,0.90
2019-06-27T15:53:05.956Z,1.00
2019-06-27T15:55:52.189Z,1.10
2019-06-27T15:58:38.600Z,0.97
2019-06-27T16:01:25.023Z,0.80
2019-06-27T16:04:27.699Z,0.70
2019-06-27T16:06:59.137Z,0.70
2019-06-27T16:09:45.624Z,0.90
2019-06-27T16:12:31.852Z,0.80
2019-06-27T16:15:17.754Z,0.80
2019-06-27T16:18:03.725Z,0.70
2019-06-27T16:20:49.968Z,0.87
2019-06-27T16:23:36.444Z,0.97
2019-06-27T16:26:23.027Z,0.80
2019-06-27T16:29:09.478Z,0.80
2019-06-27T16:31:55.409Z,0.90
2019-06-27T16:34:41.621Z,0.90
2019-06-27T16:37:27.880Z,1.23
2019-06-27T16:40:13.851Z,0.90
2019-06-27T16:43:00.062Z,0.93
2019-06-27T16:45:46.027Z,0.80
2019-06-27T16:48:32.500Z,0.73
2019-06-27T16:51:20.553Z,0.80
2019-06-27T16:54:06.689Z,0.60
2019-06-27T16:56:52.602Z,0.80
2019-06-27T16:59:38.873Z,0.90
2019-06-27T17:02:24.716Z,0.90
2019-06-27T17:05:12.779Z,0.87
2019-06-27T17:07:58.852Z,0.80
2019-06-27T17:10:45.065Z,0.90
2019-06-27T17:13:31.272Z,0.83
2019-06-27T17:16:17.110Z,0.87
2019-06-27T17:19:04.932Z,0.80
2019-06-27T17:21:50.796Z,0.90
2019-06-27T17:24:37.069Z,0.77
2019-06-27T17:27:22.916Z,0.80
2019-06-27T17:30:10.637Z,0.90
2019-06-27T17:32:56.347Z,0.80
2019-06-27T17:35:42.744Z,1.10
2019-06-27T17:38:28.629Z,0.93
2019-06-27T17:41:14.596Z,1.30
2019-06-27T17:44:00.540Z,1.10
2019-06-27T17:46:46.623Z,1.10
2019-06-27T17:49:32.821Z,1.07
2019-06-27T17:52:19.161Z,0.90
2019-06-27T17:55:05.440Z,2.43
2019-06-27T17:57:51.845Z,10.33
2019-06-27T18:00:38.602Z,56.23
2019-06-27T18:03:24.625Z,19.63
2019-06-27T18:06:10.976Z,15.37
2019-06-27T18:08:56.773Z,8.33
2019-06-27T18:11:43.456Z,4.67
2019-06-27T18:14:29.593Z,4.37
2019-06-27T18:17:15.788Z,2.13
2019-06-27T18:20:01.640Z,1.73
2019-06-27T18:22:47.893Z,1.23
2019-06-27T18:25:34.162Z,1.10
2019-06-27T18:28:20.157Z,1.50
2019-06-27T18:31:06.424Z,1.30
2019-06-27T18:33:52.325Z,1.10
2019-06-27T18:36:38.728Z,0.90
2019-06-27T18:39:24.464Z,1.10
2019-06-27T18:42:10.329Z,1.17
2019-06-27T18:44:56.670Z,0.90
2019-06-27T18:47:42.984Z,0.90
2019-06-27T18:50:30.170Z,1.07
2019-06-27T18:53:16.092Z,0.90
2019-06-27T18:56:02.425Z,1.00
2019-06-27T18:58:48.281Z,0.90
2019-06-27T19:01:34.428Z,1.00
2019-06-27T19:04:20.813Z,0.90
2019-06-27T19:07:07.115Z,0.87
2019-06-27T19:09:53.381Z,0.90
2019-06-27T19:12:39.746Z,0.80
2019-06-27T19:15:26.150Z,0.90
2019-06-27T19:18:30.713Z,0.83
2019-06-27T19:21:36.032Z,0.90
2019-06-27T19:24:42.346Z,0.97
2019-06-27T19:27:28.628Z,0.80
2019-06-27T19:30:15.353Z,0.70
2019-06-27T19:33:01.319Z,0.70
2019-06-27T19:35:47.256Z,0.90
2019-06-27T19:38:33.560Z,0.80
2019-06-27T19:41:19.800Z,0.60
2019-06-27T19:44:06.242Z,0.90
2019-06-27T19:46:52.285Z,1.00
2019-06-27T19:49:38.089Z,0.90
2019-06-27T19:52:24.380Z,0.90
2019-06-27T19:55:10.616Z,0.80
2019-06-27T19:57:56.452Z,1.00
2019-06-27T20:00:42.741Z,0.80
2019-06-27T20:03:29.113Z,0.83
2019-06-27T20:06:15.028Z,0.90
2019-06-27T20:09:01.451Z,0.87
2019-06-27T20:11:47.712Z,1.00
2019-06-27T20:14:33.668Z,0.80
2019-06-27T20:17:19.915Z,0.90
2019-06-27T20:20:06.416Z,0.90
2019-06-27T20:22:52.777Z,1.07
2019-06-27T20:25:39.054Z,0.80
2019-06-27T20:28:25.448Z,1.00
2019-06-27T20:31:11.704Z,1.00
2019-06-27T20:33:58.032Z,0.80
2019-06-27T20:36:43.781Z,1.00
2019-06-27T20:39:30.052Z,1.00
2019-06-27T20:42:16.473Z,1.00
2019-06-27T20:45:03.147Z,1.20
2019-06-27T20:47:49.000Z,0.90
2019-06-27T20:50:41.486Z,1.00
2019-06-27T20:53:32.202Z,1.10
2019-06-27T20:56:18.544Z,0.93
2019-06-27T20:59:05.076Z,0.83
2019-06-27T21:01:51.201Z,1.33
2019-06-27T21:04:37.336Z,1.07
2019-06-27T21:07:24.227Z,1.03
2019-06-27T21:10:20.831Z,1.00
2019-06-27T21:13:31.389Z,0.97
2019-06-27T21:16:26.243Z,1.10
2019-06-27T21:19:12.477Z,1.17
2019-06-27T21:21:59.817Z,1.00
2019-06-27T21:24:58.064Z,1.10
2019-06-27T21:27:44.428Z,1.20
2019-06-27T21:34:35.974Z,1.20
2019-06-27T21:40:51.680Z,1.03
2019-06-27T21:44:30.845Z,1.10
2019-06-27T21:47:18.137Z,1.10
2019-06-27T21:50:49.791Z,1.20
2019-06-27T21:53:36.122Z,1.20
2019-06-27T22:00:14.031Z,0.90
2019-06-27T22:03:04.135Z,1.10
2019-06-27T22:05:50.550Z,1.27
2019-06-27T22:08:41.090Z,1.00
2019-06-27T22:11:27.196Z,1.10
2019-06-27T22:14:19.710Z,1.20
2019-06-27T22:17:12.345Z,1.10
2019-06-27T22:34:05.971Z,1.10
2019-06-27T22:37:06.902Z,1.10
2019-06-27T22:47:42.198Z,1.30
2019-06-27T22:50:53.690Z,1.00
2019-06-27T22:54:22.057Z,1.07
2019-06-27T22:57:15.845Z,0.90
2019-06-27T23:00:14.055Z,1.10
2019-06-27T23:03:10.616Z,1.20
2019-06-27T23:05:57.763Z,1.10
2019-06-27T23:08:50.356Z,1.10
2019-06-27T23:11:36.678Z,1.00
2019-06-27T23:14:42.724Z,1.00
2019-06-27T23:17:37.969Z,1.00
2019-06-27T23:20:30.595Z,1.00
2019-06-27T23:23:23.275Z,0.90
2019-06-27T23:26:21.484Z,1.07
2019-06-27T23:29:19.798Z,0.90
2019-06-27T23:39:04.096Z,1.00
2019-06-27T23:41:50.196Z,1.00
2019-06-27T23:44:36.004Z,0.97
2019-06-27T23:47:21.843Z,1.10
2019-06-27T23:50:07.528Z,1.10
2019-06-27T23:52:55.007Z,0.90
2019-06-27T23:55:41.016Z,1.00
2019-06-27T23:58:27.096Z,0.90
